Flight Track Log - Related Links

Times and Time Zones

All times are in EDT time to prevent confusion due to time zone crossing. See the N845FP flight status page for this flight to view local times or setup timezone preferences in your user account.


Time Position Orientation Groundspeed Altitude Reporting Facility
EDT Latitude Longitude Course Direction KTS MPH feet Rate Location/Type
Tue 06:46:41 PM 35.9906 -115.1325 98° East 158 182 3,100  Level Los Angeles Center
Tue 06:47:18 PM 35.9864 -115.0942 98° East 227 261 4,700 2,842 Climbing Los Angeles Center
Tue 06:48:16 PM 35.9203 -115.0889 176° South 271 312 7,600 3,123 Climbing Los Angeles Center
Tue 06:48:31 PM 35.8958 -115.0947 191° South 272 313 8,500 2,613 Climbing Los Angeles Center
Tue 06:49:18 PM 35.8425 -115.0947 180° South 277 319 10,300 2,202 Climbing Los Angeles Center
Tue 06:50:20 PM 35.7806 -115.0308 140° Southeast 284 327 12,500 1,324 Climbing Los Angeles Center
Tue 06:51:34 PM 35.7753 -114.9378 94° East 303 349 13,300 1,270 Climbing Los Angeles Center
Tue 06:52:37 PM 35.8164 -114.7872 71° East 335 386 15,400 1,839 Climbing Los Angeles Center
Tue 06:53:51 PM 35.8469 -114.6767 71° East 344 396 17,500 1,941 Climbing Los Angeles Center
Tue 06:54:53 PM 35.8997 -114.5475 63° Northeast 364 419 19,800 2,081 Climbing Los Angeles Center
Tue 06:55:55 PM 35.9814 -114.4881 30° Northeast 354 407 21,800 1,645 Climbing Los Angeles Center
Tue 06:56:57 PM 36.0644 -114.4275 31° Northeast 348 400 23,200 1,597 Climbing Los Angeles Center
Tue 06:57:59 PM 36.1375 -114.3333 46° Northeast 389 448 25,100 1,548 Climbing Los Angeles Center
Tue 06:59:01 PM 36.2108 -114.1972 56° Northeast 407 468 26,400 1,182 Climbing Los Angeles Center
Tue 07:00:16 PM 36.2519 -114.0600 70° East 427 491 27,800 1,533 Climbing Los Angeles Center
Tue 07:01:18 PM 36.3056 -113.8967 68° East 429 494 29,900 1,694 Climbing Los Angeles Center
Tue 07:02:20 PM 36.3494 -113.7617 68° East 424 488 31,300 1,065 Climbing Los Angeles Center
Tue 07:03:22 PM 36.3794 -113.6467 72° East 434 499 32,100 1,056 Climbing Los Angeles Center
Tue 07:04:25 PM 36.4331 -113.4428 72° East 445 512 33,500 1,104 Climbing Los Angeles Center
Tue 07:05:27 PM 36.4722 -113.2933 72° East 451 519 34,400 919 Climbing Los Angeles Center
Tue 07:06:29 PM 36.5511 -113.1833 48° Northeast 430 495 35,400 1,113 Climbing Los Angeles Center
Tue 07:07:31 PM 36.6339 -113.0878 43° Northeast 414 476 36,700 968 Climbing Los Angeles Center
Tue 07:08:33 PM 36.7161 -112.9903 44° Northeast 409 471 37,400 774 Climbing Los Angeles Center
Tue 07:09:35 PM 36.7981 -112.8906 44° Northeast 412 474 38,300 774 Climbing Los Angeles Center
Tue 07:10:37 PM 36.8944 -112.7731 44° Northeast 405 466 39,000 339 Climbing Los Angeles Center
Tue 07:11:39 PM 36.9767 -112.6756 43° Northeast 410 472 39,000  Level Los Angeles Center
Tue 07:12:41 PM 37.0619 -112.5719 44° Northeast 425 489 39,000  Level Los Angeles Center
Tue 07:13:44 PM 37.1489 -112.4650 44° Northeast 437 503 39,000  Level Los Angeles Center
Tue 07:14:46 PM 37.2381 -112.3556 44° Northeast 446 513 39,000  Level Los Angeles Center
Tue 07:15:48 PM 37.3475 -112.2217 44° Northeast 457 526 39,000 290 Level Los Angeles Center
Tue 07:16:50 PM 37.4386 -112.1075 45° Northeast 463 533 39,600 608 Climbing Los Angeles Center
Tue 07:17:07 PM 37.4553 -112.0831 49° Northeast 464 534 39,800 615 Climbing Salt Lake Center
Tue 07:18:08 PM 37.5228 -111.9439 59° Northeast 468 539 40,400 623 Climbing Salt Lake Center
Tue 07:18:53 PM 37.5772 -111.8364 57° Northeast 460 529 40,900 340 Climbing Denver Center
Tue 07:19:54 PM 37.6442 -111.7022 58° Northeast 455 524 41,000 77 Climbing Denver Center
Tue 07:20:11 PM 37.6719 -111.6492 57° Northeast 456 525 41,000  Level Salt Lake Center
Tue 07:21:13 PM 37.7425 -111.5131 57° Northeast 462 532 41,000  Level Salt Lake Center
Tue 07:22:15 PM 37.8125 -111.3736 58° Northeast 468 539 41,000  Level Salt Lake Center
Tue 07:23:16 PM 37.8833 -111.2322 58° Northeast 476 548 41,000  Level Salt Lake Center
Tue 07:24:14 PM 37.9406 -111.1169 58° Northeast 482 555 41,000  Level Denver Center
Tue 07:25:16 PM 38.0264 -110.9436 58° Northeast 486 559 41,000  Level Denver Center
Tue 07:26:18 PM 38.0992 -110.7958 58° Northeast 489 563 41,000  Level Denver Center
Tue 07:27:20 PM 38.1794 -110.6317 58° Northeast 491 565 41,000  Level Denver Center
Tue 07:28:34 PM 38.2483 -110.4925 58° Northeast 487 560 41,000  Level Denver Center
Tue 07:29:36 PM 38.3281 -110.3281 58° Northeast 488 562 41,000  Level Denver Center
Tue 07:30:28 PM 38.4083 -110.1675 57° Northeast 483 556 41,000  Level Salt Lake Center
Tue 07:31:41 PM 38.4869 -110.0019 59° Northeast 487 560 41,000  Level Denver Center
Tue 07:32:43 PM 38.5644 -109.8361 59° Northeast 488 562 41,000  Level Denver Center
Tue 07:33:45 PM 38.6339 -109.6975 57° Northeast 486 559 41,000  Level Denver Center
Tue 07:34:47 PM 38.7092 -109.5272 60° Northeast 496 571 41,000  Level Denver Center
Tue 07:35:49 PM 38.7778 -109.3878 58° Northeast 488 562 41,000  Level Denver Center
Tue 07:37:03 PM 38.8450 -109.2461 59° Northeast 488 562 41,000  Level Denver Center
Tue 07:38:05 PM 38.9344 -109.0575 59° Northeast 488 562 41,000  Level Denver Center
Tue 07:39:07 PM 39.0119 -108.8903 59° Northeast 490 564 41,000  Level Denver Center
Tue 07:40:09 PM 39.0786 -108.7481 59° Northeast 487 560 41,000  Level Denver Center
Tue 07:41:11 PM 39.1547 -108.5825 59° Northeast 483 556 41,000  Level Denver Center
Tue 07:42:13 PM 39.2206 -108.4414 59° Northeast 483 556 41,000  Level Denver Center
Tue 07:43:15 PM 39.2969 -108.2756 59° Northeast 481 554 41,000  Level Denver Center
Tue 07:44:17 PM 39.3619 -108.1331 59° Northeast 485 558 41,000  Level Denver Center
Tue 07:45:19 PM 39.4386 -107.9658 59° Northeast 487 560 41,000  Level Denver Center
Tue 07:46:21 PM 39.5033 -107.8197 60° Northeast 489 563 41,000  Level Denver Center
Tue 07:47:23 PM 39.5794 -107.6492 60° Northeast 490 564 41,000  Level Denver Center
Tue 07:48:25 PM 39.6444 -107.5025 60° Northeast 491 565 41,000  Level Denver Center
Tue 07:49:28 PM 39.7211 -107.3306 60° Northeast 494 568 41,000  Level Denver Center
Tue 07:50:30 PM 39.7833 -107.1894 60° Northeast 493 567 41,000  Level Denver Center
Tue 07:51:32 PM 39.8519 -107.0344 60° Northeast 490 564 41,000  Level Denver Center
Tue 07:52:34 PM 39.9214 -106.8772 60° Northeast 494 568 41,000  Level Denver Center
Tue 07:53:36 PM 40.0044 -106.6883 60° Northeast 497 572 41,000  Level Denver Center
Tue 07:54:38 PM 40.0681 -106.5400 61° Northeast 491 565 41,000  Level Denver Center
Tue 07:55:40 PM 40.1325 -106.3911 60° Northeast 486 559 41,000  Level Denver Center
Tue 07:56:42 PM 40.2111 -106.2064 61° Northeast 492 566 41,000  Level Denver Center
Tue 07:57:44 PM 40.2792 -106.0486 60° Northeast 492 566 41,000  Level Denver Center
Tue 07:58:46 PM 40.3458 -105.8889 61° Northeast 494 568 41,000  Level Denver Center
Tue 07:59:48 PM 40.4128 -105.7286 61° Northeast 494 568 41,000  Level Denver Center
Tue 08:00:50 PM 40.4792 -105.5692 61° Northeast 494 568 41,000  Level Denver Center
Tue 08:01:52 PM 40.5467 -105.4086 61° Northeast 494 568 41,000  Level Denver Center
Tue 08:02:54 PM 40.6139 -105.2481 61° Northeast 495 570 41,000  Level Denver Center
Tue 08:03:56 PM 40.6806 -105.0856 62° Northeast 498 573 41,000  Level Denver Center
Tue 08:04:58 PM 40.7478 -104.9244 61° Northeast 495 570 41,000  Level Denver Center
Tue 08:06:00 PM 40.8250 -104.7303 62° Northeast 502 578 41,000  Level Denver Center
Tue 08:07:02 PM 40.8928 -104.5678 61° Northeast 500 575 41,000  Level Denver Center
Tue 08:08:04 PM 40.9581 -104.4031 62° Northeast 501 577 41,000  Level Denver Center
Tue 08:09:06 PM 41.0269 -104.2319 62° Northeast 501 577 41,000  Level Denver Center
Tue 08:10:08 PM 41.0903 -104.0744 62° Northeast 503 579 41,000  Level Denver Center
Tue 08:11:10 PM 41.1611 -103.8931 63° Northeast 502 578 41,000  Level Denver Center
Tue 08:12:12 PM 41.2233 -103.7358 62° Northeast 505 581 41,000  Level Denver Center
Tue 08:13:14 PM 41.2958 -103.5517 62° Northeast 505 581 41,000  Level Denver Center
Tue 08:14:16 PM 41.3575 -103.3936 62° Northeast 505 581 41,000  Level Denver Center
Tue 08:15:18 PM 41.4294 -103.2094 62° Northeast 504 580 41,000  Level Denver Center
Tue 08:16:20 PM 41.4906 -103.0500 63° Northeast 505 581 41,000  Level Denver Center
Tue 08:17:22 PM 41.5617 -102.8642 63° Northeast 506 582 41,000  Level Denver Center
Tue 08:18:24 PM 41.6219 -102.7056 63° Northeast 502 578 41,000  Level Denver Center
Tue 08:19:26 PM 41.6894 -102.5281 63° Northeast 503 579 41,000  Level Denver Center
Tue 08:20:28 PM 41.7519 -102.3597 63° Northeast 504 580 41,000  Level Denver Center
Tue 08:21:30 PM 41.8194 -102.1792 63° Northeast 504 580 41,000  Level Denver Center
Tue 08:22:32 PM 41.8783 -102.0203 63° Northeast 499 574 41,000  Level Denver Center
Tue 08:23:34 PM 41.9489 -101.8314 63° Northeast 505 581 41,000  Level Denver Center
Tue 08:24:36 PM 42.0094 -101.6694 63° Northeast 506 582 41,000  Level Denver Center
Tue 08:25:38 PM 42.0667 -101.5075 65° Northeast 501 577 41,000  Level Denver Center
Tue 08:26:40 PM 42.1372 -101.3169 63° Northeast 507 583 41,000  Level Denver Center
Tue 08:27:42 PM 42.1958 -101.1536 64° Northeast 505 581 41,000  Level Denver Center
Tue 08:28:44 PM 42.2642 -100.9628 64° Northeast 505 581 41,000  Level Denver Center
Tue 08:29:46 PM 42.3228 -100.7994 64° Northeast 506 582 41,000  Level Denver Center
Tue 08:30:47 PM 42.3906 -100.6058 65° Northeast 509 586 41,000  Level Denver Center
Tue 08:31:49 PM 42.4492 -100.4408 64° Northeast 509 586 41,000  Level Denver Center
Tue 08:32:51 PM 42.5164 -100.2453 65° Northeast 511 588 41,000  Level Denver Center
Tue 08:33:53 PM 42.5747 -100.0789 64° Northeast 511 588 41,000  Level Denver Center
Tue 08:34:55 PM 42.6375 -99.8961 65° Northeast 511 588 41,000  Level Denver Center
Tue 08:35:57 PM 42.6983 -99.7206 65° Northeast 513 590 41,000  Level Denver Center
Tue 08:37:00 PM 42.7581 -99.5444 65° Northeast 511 588 41,000  Level Minneapolis Center
Tue 08:38:02 PM 42.8181 -99.3672 65° Northeast 512 589 41,000  Level Minneapolis Center
Tue 08:39:04 PM 42.8769 -99.1917 65° Northeast 510 587 41,000  Level Minneapolis Center
Tue 08:40:06 PM 42.9475 -98.9797 65° Northeast 510 587 41,000  Level Minneapolis Center
Tue 08:41:08 PM 43.0025 -98.8169 65° Northeast 509 586 41,000  Level Minneapolis Center
Tue 08:42:10 PM 43.0597 -98.6392 66° East 511 588 41,000  Level Minneapolis Center
Tue 08:43:12 PM 43.1169 -98.4614 66° East 511 588 41,000  Level Minneapolis Center
Tue 08:44:14 PM 43.1747 -98.2842 66° East 511 588 41,000  Level Minneapolis Center
Tue 08:45:17 PM 43.2444 -98.0714 66° East 513 590 41,000  Level Minneapolis Center
Tue 08:46:19 PM 43.3014 -97.8928 66° East 512 589 41,000  Level Minneapolis Center
Tue 08:47:21 PM 43.3572 -97.7125 67° East 514 592 41,000  Level Minneapolis Center
Tue 08:48:23 PM 43.4150 -97.5342 66° East 514 592 41,000  Level Minneapolis Center
Tue 08:49:25 PM 43.4828 -97.3183 67° East 514 592 41,000  Level Minneapolis Center
Tue 08:50:27 PM 43.5408 -97.1378 66° East 517 595 41,000  Level Minneapolis Center
Tue 08:51:29 PM 43.6353 -96.9894 49° Northeast 516 594 41,000  Level Minneapolis Center
Tue 08:52:31 PM 43.7292 -96.8414 49° Northeast 513 590 41,000  Level Minneapolis Center
Tue 08:53:33 PM 43.8222 -96.6914 49° Northeast 515 593 41,000  Level Minneapolis Center
Tue 08:54:35 PM 43.9150 -96.5403 50° Northeast 516 594 41,000  Level Minneapolis Center
Tue 08:55:37 PM 44.0264 -96.3597 49° Northeast 515 593 41,000  Level Minneapolis Center
Tue 08:56:39 PM 44.1186 -96.2100 49° Northeast 518 596 41,000 -581 Level Minneapolis Center
Tue 08:57:41 PM 44.2064 -96.0678 49° Northeast 516 594 39,800 -2,177 Descending Minneapolis Center
Tue 08:58:43 PM 44.3144 -95.8883 50° Northeast 511 588 36,500 -2,710 Descending Minneapolis Center
Tue 08:59:45 PM 44.3869 -95.7689 50° Northeast 508 585 34,200 -2,710 Descending Minneapolis Center
Tue 09:00:47 PM 44.4953 -95.5872 50° Northeast 509 586 30,900 -3,000 Descending Minneapolis Center
Tue 09:01:49 PM 44.5808 -95.4419 50° Northeast 490 564 28,000 -2,806 Descending Minneapolis Center
Tue 09:02:51 PM 44.6217 -95.2717 71° East 464 534 25,100 -2,758 Descending Minneapolis Center
Tue 09:03:53 PM 44.6547 -95.1114 74° East 437 503 22,300 -2,661 Descending Minneapolis Center
Tue 09:04:55 PM 44.6875 -94.9586 73° East 418 481 19,600 -2,544 Descending Minneapolis Center
Tue 09:05:58 PM 44.7247 -94.7822 73° East 398 458 17,000 -2,190 Descending Minneapolis Center
Tue 09:07:12 PM 44.7528 -94.6356 75° East 392 451 14,600 -2,391 Descending Minneapolis Center
Tue 09:08:06 PM 44.7917 -94.4839 70° East 334 384 11,900 -2,676 Descending FAA TRACON SMA TRACON (SMA)
Tue 09:08:26 PM 44.7986 -94.4483 75° East 315 362 11,300 -1,650 Descending FAA TRACON SMA TRACON (SMA)
Tue 09:08:46 PM 44.8050 -94.4139 75° East 300 345 10,800 -1,650 Descending FAA TRACON SMA TRACON (SMA)
Tue 09:09:06 PM 44.8144 -94.3711 73° East 297 342 10,200 -1,500 Descending FAA TRACON SMA TRACON (SMA)
Tue 09:09:26 PM 44.8203 -94.3358 77° East 299 344 9,800 -1,350 Descending FAA TRACON SMA TRACON (SMA)
Tue 09:09:46 PM 44.8261 -94.3006 77° East 302 348 9,300 -1,538 Descending FAA TRACON SMA TRACON (SMA)
Tue 09:10:05 PM 44.8339 -94.2667 72° East 299 344 8,800 -1,538 Descending FAA TRACON SMA TRACON (SMA)
Tue 09:10:25 PM 44.8428 -94.2250 73° East 291 335 8,300 -1,200 Descending FAA TRACON SMA TRACON (SMA)
Tue 09:10:45 PM 44.8483 -94.1928 76° East 282 325 8,000 -750 Descending FAA TRACON SMA TRACON (SMA)
Tue 09:11:05 PM 44.8508 -94.1611 84° East 270 311 7,800 -1,050 Descending FAA TRACON SMA TRACON (SMA)
Tue 09:11:25 PM 44.8467 -94.1214 98° East 266 306 7,300 -1,200 Descending FAA TRACON SMA TRACON (SMA)
Tue 09:11:45 PM 44.8425 -94.0897 101° East 267 307 7,000 -1,171 Descending FAA TRACON SMA TRACON (SMA)
Tue 09:12:06 PM 44.8367 -94.0500 102° East 268 308 6,500 -1,317 Descending FAA TRACON SMA TRACON (SMA)
Tue 09:12:26 PM 44.8294 -94.0178 108° East 275 316 6,100 -1,050 Descending FAA TRACON SMA TRACON (SMA)
Tue 09:12:46 PM 44.8192 -93.9858 114° Southeast 283 326 5,800 -1,200 Descending FAA TRACON SMA TRACON (SMA)
Tue 09:13:06 PM 44.8078 -93.9461 112° Southeast 286 329 5,300 -1,171 Descending FAA TRACON SMA TRACON (SMA)
Tue 09:13:27 PM 44.7992 -93.9144 111° Southeast 286 329 5,000 -450 Descending FAA TRACON SMA TRACON (SMA)
Tue 09:13:46 PM 44.7908 -93.8831 111° Southeast 281 323 5,000  Level FAA TRACON SMA TRACON (SMA)
Tue 09:14:06 PM 44.7800 -93.8433 111° Southeast 281 323 5,000  Level FAA TRACON SMA TRACON (SMA)
Tue 09:14:26 PM 44.7719 -93.8122 110° East 279 321 5,000 -600 Level FAA TRACON SMA TRACON (SMA)
Tue 09:14:46 PM 44.7644 -93.7817 109° East 273 314 4,600 -1,050 Descending FAA TRACON SMA TRACON (SMA)
Tue 09:15:06 PM 44.7553 -93.7419 108° East 272 313 4,300 -1,024 Descending FAA TRACON SMA TRACON (SMA)
Tue 09:15:27 PM 44.7492 -93.7119 106° East 265 305 3,900 -1,077 Descending FAA TRACON SMA TRACON (SMA)
Tue 09:15:45 PM 44.7417 -93.6811 109° East 266 306 3,600 -1,077 Descending FAA TRACON SMA TRACON (SMA)
Tue 09:16:06 PM 44.7339 -93.6442 106° East 262 302 3,200 -900 Descending FAA TRACON SMA TRACON (SMA)
Tue 09:16:25 PM 44.7264 -93.6136 109° East 262 302 3,000 -300 Descending FAA TRACON SMA TRACON (SMA)
Tue 09:16:46 PM 44.7197 -93.5839 108° East 262 302 3,000  Level FAA TRACON SMA TRACON (SMA)
Tue 09:17:06 PM 44.7117 -93.5467 107° East 260 299 3,000  Level FAA TRACON SMA TRACON (SMA)
Tue 09:17:26 PM 44.7047 -93.5167 108° East 260 299 3,000  Level FAA TRACON SMA TRACON (SMA)
Tue 09:17:46 PM 44.6981 -93.4864 107° East 262 302 3,000  Level FAA TRACON SMA TRACON (SMA)
Tue 09:18:06 PM 44.6897 -93.4481 107° East 265 305 3,000  Level FAA TRACON SMA TRACON (SMA)
Tue 09:18:26 PM 44.6828 -93.4172 108° East 265 305 3,000  Level FAA TRACON SMA TRACON (SMA)
Tue 09:18:46 PM 44.6758 -93.3864 108° East 267 307 3,000  Level FAA TRACON SMA TRACON (SMA)
Tue 09:19:06 PM 44.6672 -93.3478 107° East 269 310 3,000  Level FAA TRACON SMA TRACON (SMA)
Tue 09:19:26 PM 44.6608 -93.3178 107° East 266 306 3,000  Level FAA TRACON SMA TRACON (SMA)
Tue 09:19:46 PM 44.6542 -93.2872 107° East 267 307 3,000  Level FAA TRACON SMA TRACON (SMA)
Tue 09:20:06 PM 44.6456 -93.2481 107° East 269 310 3,000  Level FAA TRACON SMA TRACON (SMA)
Tue 09:20:26 PM 44.6408 -93.2172 102° East 269 310 3,000  Level FAA TRACON SMA TRACON (SMA)
Tue 09:20:45 PM 44.6447 -93.1864 80° East 265 305 3,000  Level FAA TRACON SMA TRACON (SMA)
Tue 09:21:05 PM 44.6508 -93.1475 78° East 263 303 3,000  Level FAA TRACON SMA TRACON (SMA)
Tue 09:21:26 PM 44.6558 -93.1169 77° East 261 300 3,000  Level FAA TRACON SMA TRACON (SMA)
Tue 09:21:45 PM 44.6608 -93.0861 77° East 264 304 3,000  Level FAA TRACON SMA TRACON (SMA)
Tue 09:22:26 PM 44.6719 -93.0169 77° East 260 299 3,000 -197 Level FAA TRACON SMA TRACON (SMA)
Tue 09:22:46 PM 44.6803 -92.9894 67° East 261 300 2,800 -750 Descending FAA TRACON SMA TRACON (SMA)
Tue 09:23:06 PM 44.6981 -92.9617 48° Northeast 252 290 2,500 -450 Descending FAA TRACON SMA TRACON (SMA)
Tue 09:23:26 PM 44.7131 -92.9417 43° Northeast 243 280 2,500  Level FAA TRACON SMA TRACON (SMA)
Tue 09:23:46 PM 44.7308 -92.9167 45° Northeast 238 274 2,500  Level FAA TRACON SMA TRACON (SMA)
Tue 09:24:06 PM 44.7469 -92.9014 34° Northeast 239 275 2,500  Level FAA TRACON SMA TRACON (SMA)
Tue 09:24:26 PM 44.7650 -92.9025 357° North 230 265 2,500  Level FAA TRACON SMA TRACON (SMA)
Tue 09:24:46 PM 44.7842 -92.9144 336° Northwest 203 234 2,500  Level FAA TRACON SMA TRACON (SMA)
Tue 09:25:06 PM 44.7972 -92.9253 330° Northwest 181 208 2,500  Level FAA TRACON SMA TRACON (SMA)
Tue 09:25:26 PM 44.8097 -92.9364 328° Northwest 172 198 2,500  Level FAA TRACON SMA TRACON (SMA)
Tue 09:25:46 PM 44.8247 -92.9506 326° Northwest 171 197 2,500  Level FAA TRACON SMA TRACON (SMA)
Tue 09:26:06 PM 44.8369 -92.9631 324° Northwest 174 200 2,500 -150 Level FAA TRACON SMA TRACON (SMA)
Tue 09:26:26 PM 44.8494 -92.9764 323° Northwest 179 206 2,400 -450 Descending FAA TRACON SMA TRACON (SMA)
Tue 09:26:46 PM 44.8636 -92.9925 321° Northwest 174 200 2,200 -615 Descending FAA TRACON SMA TRACON (SMA)
Tue 09:27:05 PM 44.8747 -93.0033 325° Northwest 163 188 2,000 -750 Descending FAA TRACON SMA TRACON (SMA)
Tue 09:27:26 PM 44.8856 -93.0136 326° Northwest 155 178 1,700 -878 Descending FAA TRACON SMA TRACON (SMA)
Tue 09:27:46 PM 44.8981 -93.0264 324° Northwest 144 166 1,400 -750 Descending FAA TRACON SMA TRACON (SMA)
Tue 09:28:06 PM 44.9075 -93.0350 327° Northwest 135 155 1,200 -450 Descending FAA TRACON SMA TRACON (SMA)
Tue 09:28:26 PM 44.9139 -93.0417 324° Northwest 130 150 1,100 -300 Descending FAA TRACON SMA TRACON (SMA)

Login

Don't have an account? Register now (free) for customized features, flight alerts, and more!